sensor_id;sensor_type;location;lat;lon;timestamp;temperature;humidity
25208;DHT22;13153;52.316;21.166;2023-04-01T00:01:03;11.20;99.90
25208;DHT22;13153;52.316;21.166;2023-04-01T00:03:30;11.20;99.90
25208;DHT22;13153;52.316;21.166;2023-04-01T00:05:59;11.20;99.90
25208;DHT22;13153;52.316;21.166;2023-04-01T00:08:26;11.20;99.90
25208;DHT22;13153;52.316;21.166;2023-04-01T00:10:52;11.20;99.90
25208;DHT22;13153;52.316;21.166;2023-04-01T00:13:20;11.20;99.90
25208;DHT22;13153;52.316;21.166;2023-04-01T00:15:47;11.20;99.90
25208;DHT22;13153;52.316;21.166;2023-04-01T00:18:14;11.20;99.90
25208;DHT22;13153;52.316;21.166;2023-04-01T00:20:45;11.20;99.90
25208;DHT22;13153;52.316;21.166;2023-04-01T00:23:13;11.20;99.90
25208;DHT22;13153;52.316;21.166;2023-04-01T00:25:39;11.20;99.90
25208;DHT22;13153;52.316;21.166;2023-04-01T00:28:05;11.20;99.90
25208;DHT22;13153;52.316;21.166;2023-04-01T00:30:31;11.20;99.90
25208;DHT22;13153;52.316;21.166;2023-04-01T00:32:57;11.20;99.90
25208;DHT22;13153;52.316;21.166;2023-04-01T00:35:23;11.30;99.90
25208;DHT22;13153;52.316;21.166;2023-04-01T00:37:48;11.20;99.90
25208;DHT22;13153;52.316;21.166;2023-04-01T00:40:31;11.30;99.90
25208;DHT22;13153;52.316;21.166;2023-04-01T00:42:59;11.30;99.90
25208;DHT22;13153;52.316;21.166;2023-04-01T00:45:41;11.20;99.90
25208;DHT22;13153;52.316;21.166;2023-04-01T00:48:13;11.30;99.90
25208;DHT22;13153;52.316;21.166;2023-04-01T00:50:47;11.30;99.90
25208;DHT22;13153;52.316;21.166;2023-04-01T00:53:18;11.30;99.90
25208;DHT22;13153;52.316;21.166;2023-04-01T00:55:50;11.30;99.90
25208;DHT22;13153;52.316;21.166;2023-04-01T00:58:27;11.30;99.90
25208;DHT22;13153;52.316;21.166;2023-04-01T01:00:57;11.30;99.90
25208;DHT22;13153;52.316;21.166;2023-04-01T01:03:25;11.20;99.90
25208;DHT22;13153;52.316;21.166;2023-04-01T01:08:43;11.30;99.90
25208;DHT22;13153;52.316;21.166;2023-04-01T01:11:43;11.20;99.90
25208;DHT22;13153;52.316;21.166;2023-04-01T01:14:52;11.20;99.90
25208;DHT22;13153;52.316;21.166;2023-04-01T01:18:00;11.20;99.90
25208;DHT22;13153;52.316;21.166;2023-04-01T01:23:40;11.20;99.90
25208;DHT22;13153;52.316;21.166;2023-04-01T01:35:43;11.10;99.90
25208;DHT22;13153;52.316;21.166;2023-04-01T01:38:18;11.10;99.90
25208;DHT22;13153;52.316;21.166;2023-04-01T01:40:52;11.20;99.90
25208;DHT22;13153;52.316;21.166;2023-04-01T01:43:25;11.20;99.90
25208;DHT22;13153;52.316;21.166;2023-04-01T01:45:58;11.10;99.90
25208;DHT22;13153;52.316;21.166;2023-04-01T01:48:27;11.20;99.90
25208;DHT22;13153;52.316;21.166;2023-04-01T01:50:55;11.20;99.90
25208;DHT22;13153;52.316;21.166;2023-04-01T01:53:22;11.20;99.90
25208;DHT22;13153;52.316;21.166;2023-04-01T01:55:48;11.20;99.90
25208;DHT22;13153;52.316;21.166;2023-04-01T01:58:30;11.20;99.90
25208;DHT22;13153;52.316;21.166;2023-04-01T02:01:09;11.20;99.90
25208;DHT22;13153;52.316;21.166;2023-04-01T02:03:39;11.20;99.90
25208;DHT22;13153;52.316;21.166;2023-04-01T02:06:09;11.20;99.90
25208;DHT22;13153;52.316;21.166;2023-04-01T02:09:19;11.10;99.90
25208;DHT22;13153;52.316;21.166;2023-04-01T02:11:36;11.20;99.90
25208;DHT22;13153;52.316;21.166;2023-04-01T02:14:28;11.20;99.90
25208;DHT22;13153;52.316;21.166;2023-04-01T02:17:19;11.20;99.90
25208;DHT22;13153;52.316;21.166;2023-04-01T02:22:40;11.20;99.90
25208;DHT22;13153;52.316;21.166;2023-04-01T02:25:15;11.20;99.90
25208;DHT22;13153;52.316;21.166;2023-04-01T02:27:57;11.20;99.90
25208;DHT22;13153;52.316;21.166;2023-04-01T02:30:27;11.20;99.90
25208;DHT22;13153;52.316;21.166;2023-04-01T02:32:56;11.20;99.90
25208;DHT22;13153;52.316;21.166;2023-04-01T02:35:23;11.20;99.90
25208;DHT22;13153;52.316;21.166;2023-04-01T02:37:50;11.20;99.90
25208;DHT22;13153;52.316;21.166;2023-04-01T02:40:18;11.20;99.90
25208;DHT22;13153;52.316;21.166;2023-04-01T02:42:44;11.20;99.90
25208;DHT22;13153;52.316;21.166;2023-04-01T02:45:10;11.20;99.90
25208;DHT22;13153;52.316;21.166;2023-04-01T02:47:37;11.20;99.90
25208;DHT22;13153;52.316;21.166;2023-04-01T02:50:04;11.20;99.90
25208;DHT22;13153;52.316;21.166;2023-04-01T02:52:31;11.20;99.90
25208;DHT22;13153;52.316;21.166;2023-04-01T02:54:57;11.20;99.90
25208;DHT22;13153;52.316;21.166;2023-04-01T02:57:24;11.20;99.90
25208;DHT22;13153;52.316;21.166;2023-04-01T02:59:50;11.10;99.90
25208;DHT22;13153;52.316;21.166;2023-04-01T03:02:17;11.20;99.90
25208;DHT22;13153;52.316;21.166;2023-04-01T03:04:43;11.20;99.90
25208;DHT22;13153;52.316;21.166;2023-04-01T03:07:09;11.10;99.90
25208;DHT22;13153;52.316;21.166;2023-04-01T03:09:38;11.20;99.90
25208;DHT22;13153;52.316;21.166;2023-04-01T03:12:04;11.20;99.90
25208;DHT22;13153;52.316;21.166;2023-04-01T03:14:31;11.20;99.90
25208;DHT22;13153;52.316;21.166;2023-04-01T03:16:57;11.20;99.90
25208;DHT22;13153;52.316;21.166;2023-04-01T03:19:22;11.10;99.90
25208;DHT22;13153;52.316;21.166;2023-04-01T03:21:48;11.10;99.90
25208;DHT22;13153;52.316;21.166;2023-04-01T03:24:14;11.10;99.90
25208;DHT22;13153;52.316;21.166;2023-04-01T03:26:40;11.10;99.90
25208;DHT22;13153;52.316;21.166;2023-04-01T03:29:05;11.10;99.90
25208;DHT22;13153;52.316;21.166;2023-04-01T03:31:31;11.10;99.90
25208;DHT22;13153;52.316;21.166;2023-04-01T03:33:57;11.10;99.90
25208;DHT22;13153;52.316;21.166;2023-04-01T03:36:23;11.10;99.90
25208;DHT22;13153;52.316;21.166;2023-04-01T03:38:49;11.10;99.90
25208;DHT22;13153;52.316;21.166;2023-04-01T03:41:15;11.10;99.90
25208;DHT22;13153;52.316;21.166;2023-04-01T03:43:43;11.10;99.90
25208;DHT22;13153;52.316;21.166;2023-04-01T03:46:09;11.10;99.90
25208;DHT22;13153;52.316;21.166;2023-04-01T03:48:35;11.10;99.90
25208;DHT22;13153;52.316;21.166;2023-04-01T03:51:01;11.00;99.90
25208;DHT22;13153;52.316;21.166;2023-04-01T03:53:27;11.10;99.90
25208;DHT22;13153;52.316;21.166;2023-04-01T03:55:53;11.10;99.90
25208;DHT22;13153;52.316;21.166;2023-04-01T03:58:19;11.00;99.90
25208;DHT22;13153;52.316;21.166;2023-04-01T04:00:45;11.00;99.90
25208;DHT22;13153;52.316;21.166;2023-04-01T04:03:11;11.00;99.90
25208;DHT22;13153;52.316;21.166;2023-04-01T04:05:37;11.00;99.90
25208;DHT22;13153;52.316;21.166;2023-04-01T04:08:03;11.00;99.90
25208;DHT22;13153;52.316;21.166;2023-04-01T04:10:29;11.10;99.90
25208;DHT22;13153;52.316;21.166;2023-04-01T04:12:55;11.10;99.90
25208;DHT22;13153;52.316;21.166;2023-04-01T04:15:22;11.10;99.90
25208;DHT22;13153;52.316;21.166;2023-04-01T04:17:48;11.10;99.90
25208;DHT22;13153;52.316;21.166;2023-04-01T04:20:14;11.10;99.90
25208;DHT22;13153;52.316;21.166;2023-04-01T04:22:40;11.10;99.90
25208;DHT22;13153;52.316;21.166;2023-04-01T04:25:07;11.10;99.90
25208;DHT22;13153;52.316;21.166;2023-04-01T04:27:34;11.00;99.90
25208;DHT22;13153;52.316;21.166;2023-04-01T04:30:00;11.00;99.90
25208;DHT22;13153;52.316;21.166;2023-04-01T04:32:26;11.00;99.90
25208;DHT22;13153;52.316;21.166;2023-04-01T04:34:52;11.00;99.90
25208;DHT22;13153;52.316;21.166;2023-04-01T04:37:17;11.00;99.90
25208;DHT22;13153;52.316;21.166;2023-04-01T04:39:43;11.00;99.90
25208;DHT22;13153;52.316;21.166;2023-04-01T04:42:09;11.00;99.90
25208;DHT22;13153;52.316;21.166;2023-04-01T04:44:35;11.00;99.90
25208;DHT22;13153;52.316;21.166;2023-04-01T04:47:01;11.00;99.90
25208;DHT22;13153;52.316;21.166;2023-04-01T04:49:27;11.00;99.90
25208;DHT22;13153;52.316;21.166;2023-04-01T04:51:53;11.00;99.90
25208;DHT22;13153;52.316;21.166;2023-04-01T04:54:19;11.00;99.90
25208;DHT22;13153;52.316;21.166;2023-04-01T04:56:45;11.00;99.90
25208;DHT22;13153;52.316;21.166;2023-04-01T04:59:10;11.00;99.90
25208;DHT22;13153;52.316;21.166;2023-04-01T05:01:38;11.00;99.90
25208;DHT22;13153;52.316;21.166;2023-04-01T05:04:04;11.00;99.90
25208;DHT22;13153;52.316;21.166;2023-04-01T05:06:30;11.00;99.90
25208;DHT22;13153;52.316;21.166;2023-04-01T05:08:56;11.00;99.90
25208;DHT22;13153;52.316;21.166;2023-04-01T05:11:23;11.00;99.90
25208;DHT22;13153;52.316;21.166;2023-04-01T05:13:51;11.00;99.90
25208;DHT22;13153;52.316;21.166;2023-04-01T05:16:18;11.00;99.90
25208;DHT22;13153;52.316;21.166;2023-04-01T05:18:46;11.00;99.90
25208;DHT22;13153;52.316;21.166;2023-04-01T05:21:13;11.00;99.90
25208;DHT22;13153;52.316;21.166;2023-04-01T05:23:40;11.10;99.90
25208;DHT22;13153;52.316;21.166;2023-04-01T05:26:12;11.10;99.90
25208;DHT22;13153;52.316;21.166;2023-04-01T05:28:40;11.10;99.90
25208;DHT22;13153;52.316;21.166;2023-04-01T05:31:07;11.10;99.90
25208;DHT22;13153;52.316;21.166;2023-04-01T05:33:33;11.10;99.90
25208;DHT22;13153;52.316;21.166;2023-04-01T05:36:14;11.10;99.90
25208;DHT22;13153;52.316;21.166;2023-04-01T05:38:41;11.10;99.90
25208;DHT22;13153;52.316;21.166;2023-04-01T05:41:08;11.20;99.90
25208;DHT22;13153;52.316;21.166;2023-04-01T05:43:38;11.20;99.90
25208;DHT22;13153;52.316;21.166;2023-04-01T05:46:05;11.10;99.90
25208;DHT22;13153;52.316;21.166;2023-04-01T05:48:33;11.20;99.90
25208;DHT22;13153;52.316;21.166;2023-04-01T05:51:03;11.20;99.90
25208;DHT22;13153;52.316;21.166;2023-04-01T05:53:29;11.20;99.90
25208;DHT22;13153;52.316;21.166;2023-04-01T05:55:55;11.20;99.90
25208;DHT22;13153;52.316;21.166;2023-04-01T05:58:21;11.30;99.90
25208;DHT22;13153;52.316;21.166;2023-04-01T06:00:46;11.20;99.90
25208;DHT22;13153;52.316;21.166;2023-04-01T06:03:12;11.20;99.90
25208;DHT22;13153;52.316;21.166;2023-04-01T06:05:41;11.20;99.90
25208;DHT22;13153;52.316;21.166;2023-04-01T06:08:12;11.20;99.90
25208;DHT22;13153;52.316;21.166;2023-04-01T06:19:09;11.40;99.90
25208;DHT22;13153;52.316;21.166;2023-04-01T06:37:24;12.50;99.90
25208;DHT22;13153;52.316;21.166;2023-04-01T06:43:25;13.40;99.90
25208;DHT22;13153;52.316;21.166;2023-04-01T06:46:39;13.90;99.90
25208;DHT22;13153;52.316;21.166;2023-04-01T06:54:54;14.80;99.90
25208;DHT22;13153;52.316;21.166;2023-04-01T06:57:43;14.90;99.90
25208;DHT22;13153;52.316;21.166;2023-04-01T07:00:30;14.70;99.90
25208;DHT22;13153;52.316;21.166;2023-04-01T07:03:49;14.60;99.90
25208;DHT22;13153;52.316;21.166;2023-04-01T07:06:03;14.40;99.90
25208;DHT22;13153;52.316;21.166;2023-04-01T07:08:37;14.30;99.90
25208;DHT22;13153;52.316;21.166;2023-04-01T07:11:25;14.30;99.90
25208;DHT22;13153;52.316;21.166;2023-04-01T07:14:01;14.10;99.90
25208;DHT22;13153;52.316;21.166;2023-04-01T07:16:45;14.00;99.90
25208;DHT22;13153;52.316;21.166;2023-04-01T07:19:24;14.00;99.90
25208;DHT22;13153;52.316;21.166;2023-04-01T07:22:04;14.10;99.90
25208;DHT22;13153;52.316;21.166;2023-04-01T07:24:42;14.20;99.90
25208;DHT22;13153;52.316;21.166;2023-04-01T07:27:11;14.20;99.90
25208;DHT22;13153;52.316;21.166;2023-04-01T07:29:39;14.20;99.90
25208;DHT22;13153;52.316;21.166;2023-04-01T07:32:20;14.40;99.90
25208;DHT22;13153;52.316;21.166;2023-04-01T07:35:22;14.40;99.90
25208;DHT22;13153;52.316;21.166;2023-04-01T07:50:29;14.50;99.90
25208;DHT22;13153;52.316;21.166;2023-04-01T07:53:01;14.80;99.90
25208;DHT22;13153;52.316;21.166;2023-04-01T07:55:42;15.00;99.90
25208;DHT22;13153;52.316;21.166;2023-04-01T08:07:11;14.70;99.90
25208;DHT22;13153;52.316;21.166;2023-04-01T08:09:52;14.70;99.90
25208;DHT22;13153;52.316;21.166;2023-04-01T08:12:51;14.90;99.90
25208;DHT22;13153;52.316;21.166;2023-04-01T08:16:26;15.00;99.90
25208;DHT22;13153;52.316;21.166;2023-04-01T08:18:46;14.90;99.90
25208;DHT22;13153;52.316;21.166;2023-04-01T08:21:24;15.00;99.90
25208;DHT22;13153;52.316;21.166;2023-04-01T08:23:57;15.10;99.90
25208;DHT22;13153;52.316;21.166;2023-04-01T08:26:42;15.10;99.90
25208;DHT22;13153;52.316;21.166;2023-04-01T08:29:25;15.10;99.90
25208;DHT22;13153;52.316;21.166;2023-04-01T08:32:16;15.00;99.90
25208;DHT22;13153;52.316;21.166;2023-04-01T08:35:02;14.90;99.90
25208;DHT22;13153;52.316;21.166;2023-04-01T08:37:38;14.80;99.90
25208;DHT22;13153;52.316;21.166;2023-04-01T08:48:26;14.40;99.90
25208;DHT22;13153;52.316;21.166;2023-04-01T09:09:46;13.90;99.90
25208;DHT22;13153;52.316;21.166;2023-04-01T09:12:47;13.90;99.90
25208;DHT22;13153;52.316;21.166;2023-04-01T09:28:17;14.20;99.90
25208;DHT22;13153;52.316;21.166;2023-04-01T09:31:07;14.10;99.90
25208;DHT22;13153;52.316;21.166;2023-04-01T09:48:50;13.40;99.90
25208;DHT22;13153;52.316;21.166;2023-04-01T09:54:48;13.30;99.90
25208;DHT22;13153;52.316;21.166;2023-04-01T10:15:17;13.20;99.90
25208;DHT22;13153;52.316;21.166;2023-04-01T10:29:40;13.70;99.90
25208;DHT22;13153;52.316;21.166;2023-04-01T10:32:44;13.90;99.90
25208;DHT22;13153;52.316;21.166;2023-04-01T10:53:46;13.40;99.90
25208;DHT22;13153;52.316;21.166;2023-04-01T10:56:34;13.40;99.90
25208;DHT22;13153;52.316;21.166;2023-04-01T11:21:46;14.90;99.90
25208;DHT22;13153;52.316;21.166;2023-04-01T11:39:32;14.80;99.90
25208;DHT22;13153;52.316;21.166;2023-04-01T12:00:51;13.60;99.90
25208;DHT22;13153;52.316;21.166;2023-04-01T12:07:40;13.40;99.90
25208;DHT22;13153;52.316;21.166;2023-04-01T12:10:26;13.30;99.90
25208;DHT22;13153;52.316;21.166;2023-04-01T12:22:33;13.20;99.90
25208;DHT22;13153;52.316;21.166;2023-04-01T12:25:03;13.30;99.90
25208;DHT22;13153;52.316;21.166;2023-04-01T12:31:01;13.50;99.90
25208;DHT22;13153;52.316;21.166;2023-04-01T12:39:57;13.70;99.90
25208;DHT22;13153;52.316;21.166;2023-04-01T12:51:29;14.30;99.90
25208;DHT22;13153;52.316;21.166;2023-04-01T12:56:57;14.30;99.90
25208;DHT22;13153;52.316;21.166;2023-04-01T13:16:56;14.50;99.90
25208;DHT22;13153;52.316;21.166;2023-04-01T13:28:26;14.40;99.90
25208;DHT22;13153;52.316;21.166;2023-04-01T13:31:33;14.40;99.90
25208;DHT22;13153;52.316;21.166;2023-04-01T13:37:26;14.20;99.90
25208;DHT22;13153;52.316;21.166;2023-04-01T13:45:55;14.00;99.90
25208;DHT22;13153;52.316;21.166;2023-04-01T13:54:52;13.90;99.90
25208;DHT22;13153;52.316;21.166;2023-04-01T14:13:40;13.70;99.90
25208;DHT22;13153;52.316;21.166;2023-04-01T14:19:32;13.70;99.90
25208;DHT22;13153;52.316;21.166;2023-04-01T14:45:31;12.60;99.90
25208;DHT22;13153;52.316;21.166;2023-04-01T14:59:48;12.10;99.90
25208;DHT22;13153;52.316;21.166;2023-04-01T15:03:01;12.00;99.90
25208;DHT22;13153;52.316;21.166;2023-04-01T15:05:55;12.00;99.90
25208;DHT22;13153;52.316;21.166;2023-04-01T15:09:32;11.90;99.90
25208;DHT22;13153;52.316;21.166;2023-04-01T15:25:38;11.50;99.90
25208;DHT22;13153;52.316;21.166;2023-04-01T15:28:42;11.40;99.90
25208;DHT22;13153;52.316;21.166;2023-04-01T15:34:31;11.40;99.90
25208;DHT22;13153;52.316;21.166;2023-04-01T15:37:50;11.40;99.90
25208;DHT22;13153;52.316;21.166;2023-04-01T15:46:40;11.30;99.90
25208;DHT22;13153;52.316;21.166;2023-04-01T15:55:37;11.30;99.90
25208;DHT22;13153;52.316;21.166;2023-04-01T16:02:00;11.10;99.90
25208;DHT22;13153;52.316;21.166;2023-04-01T16:08:33;10.80;99.90
25208;DHT22;13153;52.316;21.166;2023-04-01T16:24:09;10.50;99.90
25208;DHT22;13153;52.316;21.166;2023-04-01T16:27:01;10.50;99.90
25208;DHT22;13153;52.316;21.166;2023-04-01T16:29:51;10.60;99.90
25208;DHT22;13153;52.316;21.166;2023-04-01T16:44:54;10.50;99.90
25208;DHT22;13153;52.316;21.166;2023-04-01T16:48:12;10.40;99.90
25208;DHT22;13153;52.316;21.166;2023-04-01T16:57:37;10.30;99.90
25208;DHT22;13153;52.316;21.166;2023-04-01T17:00:47;10.30;99.90
25208;DHT22;13153;52.316;21.166;2023-04-01T17:03:26;10.30;99.90
25208;DHT22;13153;52.316;21.166;2023-04-01T17:12:38;10.40;99.90
25208;DHT22;13153;52.316;21.166;2023-04-01T17:15:24;10.40;99.90
25208;DHT22;13153;52.316;21.166;2023-04-01T17:21:38;10.50;99.90
25208;DHT22;13153;52.316;21.166;2023-04-01T17:24:42;10.50;99.90
25208;DHT22;13153;52.316;21.166;2023-04-01T17:27:30;10.50;99.90
25208;DHT22;13153;52.316;21.166;2023-04-01T17:30:26;10.50;99.90
25208;DHT22;13153;52.316;21.166;2023-04-01T17:39:04;10.60;99.90
25208;DHT22;13153;52.316;21.166;2023-04-01T17:44:47;10.50;99.90
25208;DHT22;13153;52.316;21.166;2023-04-01T17:47:43;10.60;99.90
25208;DHT22;13153;52.316;21.166;2023-04-01T17:56:14;10.60;99.90
25208;DHT22;13153;52.316;21.166;2023-04-01T18:07:04;10.60;99.90
25208;DHT22;13153;52.316;21.166;2023-04-01T18:10:28;10.60;99.90
25208;DHT22;13153;52.316;21.166;2023-04-01T18:25:27;10.60;99.90
25208;DHT22;13153;52.316;21.166;2023-04-01T18:28:54;10.60;99.90
25208;DHT22;13153;52.316;21.166;2023-04-01T18:31:42;10.60;99.90
25208;DHT22;13153;52.316;21.166;2023-04-01T18:34:36;10.60;99.90
25208;DHT22;13153;52.316;21.166;2023-04-01T18:40:50;10.60;99.90
25208;DHT22;13153;52.316;21.166;2023-04-01T18:53:48;10.60;99.90
25208;DHT22;13153;52.316;21.166;2023-04-01T18:56:39;10.60;99.90
25208;DHT22;13153;52.316;21.166;2023-04-01T19:02:31;10.70;99.90
25208;DHT22;13153;52.316;21.166;2023-04-01T19:05:31;10.70;99.90
25208;DHT22;13153;52.316;21.166;2023-04-01T19:08:19;10.70;99.90
25208;DHT22;13153;52.316;21.166;2023-04-01T19:11:13;10.60;99.90
25208;DHT22;13153;52.316;21.166;2023-04-01T19:14:19;10.60;99.90
25208;DHT22;13153;52.316;21.166;2023-04-01T19:17:18;10.60;99.90
25208;DHT22;13153;52.316;21.166;2023-04-01T19:20:18;10.50;99.90
25208;DHT22;13153;52.316;21.166;2023-04-01T19:32:53;10.20;99.90
25208;DHT22;13153;52.316;21.166;2023-04-01T19:40:24;10.20;99.90
25208;DHT22;13153;52.316;21.166;2023-04-01T19:52:14;10.20;99.90
25208;DHT22;13153;52.316;21.166;2023-04-01T19:57:48;10.20;99.90
25208;DHT22;13153;52.316;21.166;2023-04-01T20:08:39;10.20;99.90
25208;DHT22;13153;52.316;21.166;2023-04-01T20:11:44;10.20;99.90
25208;DHT22;13153;52.316;21.166;2023-04-01T20:14:51;10.20;99.90
25208;DHT22;13153;52.316;21.166;2023-04-01T20:25:27;10.20;99.90
25208;DHT22;13153;52.316;21.166;2023-04-01T20:31:00;10.20;99.90
25208;DHT22;13153;52.316;21.166;2023-04-01T20:33:43;10.10;99.90
25208;DHT22;13153;52.316;21.166;2023-04-01T20:51:07;9.80;99.90
25208;DHT22;13153;52.316;21.166;2023-04-01T20:53:48;9.80;99.90
25208;DHT22;13153;52.316;21.166;2023-04-01T20:56:19;9.70;99.90
25208;DHT22;13153;52.316;21.166;2023-04-01T21:08:02;9.50;99.90
25208;DHT22;13153;52.316;21.166;2023-04-01T21:13:49;9.50;99.90
25208;DHT22;13153;52.316;21.166;2023-04-01T21:16:27;9.40;99.90
25208;DHT22;13153;52.316;21.166;2023-04-01T21:25:26;9.30;99.90
25208;DHT22;13153;52.316;21.166;2023-04-01T21:36:38;9.30;99.90
25208;DHT22;13153;52.316;21.166;2023-04-01T21:42:22;9.30;99.90
25208;DHT22;13153;52.316;21.166;2023-04-01T21:45:20;9.30;99.90
25208;DHT22;13153;52.316;21.166;2023-04-01T22:05:18;9.20;99.90
25208;DHT22;13153;52.316;21.166;2023-04-01T22:16:56;9.20;99.90
25208;DHT22;13153;52.316;21.166;2023-04-01T22:19:48;9.10;99.90
25208;DHT22;13153;52.316;21.166;2023-04-01T22:26:05;9.00;99.90
25208;DHT22;13153;52.316;21.166;2023-04-01T22:28:52;9.00;99.90
25208;DHT22;13153;52.316;21.166;2023-04-01T22:31:28;9.00;99.90
25208;DHT22;13153;52.316;21.166;2023-04-01T22:41:11;9.00;99.90
25208;DHT22;13153;52.316;21.166;2023-04-01T22:43:47;9.00;99.90
25208;DHT22;13153;52.316;21.166;2023-04-01T22:49:17;8.90;99.90
25208;DHT22;13153;52.316;21.166;2023-04-01T22:55:22;8.90;99.90
25208;DHT22;13153;52.316;21.166;2023-04-01T22:58:03;8.90;99.90
25208;DHT22;13153;52.316;21.166;2023-04-01T23:00:49;8.90;99.90
25208;DHT22;13153;52.316;21.166;2023-04-01T23:03:30;8.90;99.90
25208;DHT22;13153;52.316;21.166;2023-04-01T23:06:00;8.90;99.90
25208;DHT22;13153;52.316;21.166;2023-04-01T23:11:26;8.90;99.90
25208;DHT22;13153;52.316;21.166;2023-04-01T23:22:33;8.90;99.90
25208;DHT22;13153;52.316;21.166;2023-04-01T23:25:36;8.90;99.90
25208;DHT22;13153;52.316;21.166;2023-04-01T23:30:51;8.80;99.90
25208;DHT22;13153;52.316;21.166;2023-04-01T23:36:09;8.80;99.90
25208;DHT22;13153;52.316;21.166;2023-04-01T23:38:40;8.80;99.90
25208;DHT22;13153;52.316;21.166;2023-04-01T23:41:23;8.80;99.90
25208;DHT22;13153;52.316;21.166;2023-04-01T23:44:05;8.80;99.90
25208;DHT22;13153;52.316;21.166;2023-04-01T23:46:37;8.70;99.90
25208;DHT22;13153;52.316;21.166;2023-04-01T23:49:13;8.70;99.90
25208;DHT22;13153;52.316;21.166;2023-04-01T23:52:23;8.70;99.90
25208;DHT22;13153;52.316;21.166;2023-04-01T23:55:02;8.70;99.90
25208;DHT22;13153;52.316;21.166;2023-04-01T23:57:35;8.70;99.90
